Time;durP1;ratioP1;P1;durP2;ratioP2;P2;SDS_P1;SDS_P2;PMS_P1;PMS_P2;Temp;Humidity;BMP_temperature;BMP_pressure;BME280_temperature;BME280_humidity;BME280_pressure;Samples;Min_cycle;Max_cycle;Signal;HPM_P1;HPM_P2
2023/09/23 00:00:19;;;;;;;11.90;3.45;;;;;;;9.13;75.15;100459.44;5049865;28;20052;-44
2023/09/23 00:02:46;;;;;;;11.75;3.70;;;;;;;9.12;75.30;100465.31;5050257;28;20141;-44
2023/09/23 00:05:15;;;;;;;15.90;3.53;;;;;;;9.13;75.36;100466.94;5049985;28;20056;-44
2023/09/23 00:07:43;;;;;;;10.13;2.65;;;;;;;9.13;75.22;100470.47;5048259;28;20102;-45
2023/09/23 00:10:11;;;;;;;18.13;3.05;;;;;;;9.12;75.23;100476.34;5048517;28;20155;-46
2023/09/23 00:12:40;;;;;;;10.48;3.15;;;;;;;9.06;75.47;100472.19;5046688;28;20045;-45
2023/09/23 00:15:10;;;;;;;18.00;3.20;;;;;;;9.03;75.49;100484.72;5046794;28;20560;-44
2023/09/23 00:17:37;;;;;;;16.10;3.72;;;;;;;9.02;75.54;100482.31;5047576;28;20045;-46
2023/09/23 00:20:16;;;;;;;13.65;4.65;;;;;;;9.01;75.55;100475.16;5048706;28;20052;-45
2023/09/23 00:22:46;;;;;;;15.20;5.30;;;;;;;8.96;75.61;100478.97;5049317;28;20135;-44
2023/09/23 00:25:18;;;;;;;12.30;4.15;;;;;;;8.97;75.77;100494.38;5049784;28;20040;-45
2023/09/23 00:27:49;;;;;;;12.32;3.92;;;;;;;8.96;75.78;100490.00;5048335;28;20044;-43
2023/09/23 00:30:15;;;;;;;16.70;5.00;;;;;;;8.98;75.71;100484.13;5046172;28;20060;-45
2023/09/23 00:32:43;;;;;;;13.10;3.83;;;;;;;8.96;75.99;100490.00;5047009;28;20045;-44
2023/09/23 00:35:11;;;;;;;15.45;4.40;;;;;;;8.92;75.78;100493.78;5031415;28;20044;-44
2023/09/23 00:37:43;;;;;;;14.95;3.70;;;;;;;8.87;75.85;100499.53;5047584;28;20407;-44
2023/09/23 00:40:17;;;;;;;13.07;3.17;;;;;;;8.82;76.02;100500.53;5048548;28;20083;-44
2023/09/23 00:42:47;;;;;;;12.95;3.33;;;;;;;8.78;76.10;100502.38;5049219;28;20049;-44
2023/09/23 00:45:16;;;;;;;14.32;3.50;;;;;;;8.78;76.15;100504.31;5048987;28;20041;-44
2023/09/23 00:47:45;;;;;;;11.82;2.78;;;;;;;8.76;76.19;100523.16;5047844;28;20410;-44
2023/09/23 00:50:18;;;;;;;14.90;4.88;;;;;;;8.69;76.33;100520.13;5048503;28;20044;-43
2023/09/23 00:52:49;;;;;;;8.73;2.78;;;;;;;8.62;76.51;100517.94;5049393;28;20459;-44
2023/09/23 00:55:17;;;;;;;15.85;3.50;;;;;;;8.57;76.68;100527.22;5049743;28;20037;-46
2023/09/23 00:57:49;;;;;;;12.45;3.30;;;;;;;8.55;76.76;100512.94;5047958;28;20055;-43
2023/09/23 01:00:24;;;;;;;10.73;3.35;;;;;;;8.52;76.90;100518.34;5049119;28;20049;-44
2023/09/23 01:02:55;;;;;;;13.32;4.25;;;;;;;8.50;76.97;100520.59;5048586;28;20084;-45
2023/09/23 01:05:27;;;;;;;19.25;3.33;;;;;;;8.45;77.12;100510.59;5048119;28;20133;-44
2023/09/23 01:08:02;;;;;;;11.02;3.38;;;;;;;8.39;77.25;100511.16;5047846;28;20049;-44
2023/09/23 01:10:29;;;;;;;16.10;3.40;;;;;;;8.37;77.45;100514.22;5048974;28;20086;-44
2023/09/23 01:12:56;;;;;;;10.18;3.33;;;;;;;8.38;77.36;100523.31;5048965;28;20047;-44
2023/09/23 01:15:25;;;;;;;13.23;4.03;;;;;;;8.33;77.66;100509.72;5048815;28;20041;-43
2023/09/23 01:17:53;;;;;;;11.13;3.72;;;;;;;8.28;77.75;100507.97;5047502;28;20044;-44
2023/09/23 01:20:21;;;;;;;13.13;3.63;;;;;;;8.31;77.74;100506.50;5048659;28;20049;-45
2023/09/23 01:22:48;;;;;;;14.15;4.32;;;;;;;8.27;77.75;100508.28;5047384;28;20403;-45
2023/09/23 01:25:16;;;;;;;9.90;3.22;;;;;;;8.27;77.84;100511.06;5035282;28;20045;-44
2023/09/23 01:27:43;;;;;;;13.57;3.42;;;;;;;8.18;78.02;100513.84;5052084;28;20049;-44
2023/09/23 01:30:12;;;;;;;13.73;3.53;;;;;;;8.20;78.30;100517.09;5052783;28;20048;-44
2023/09/23 01:32:48;;;;;;;13.73;3.45;;;;;;;8.18;78.20;100516.59;5052530;28;20075;-44
2023/09/23 01:35:16;;;;;;;10.90;4.43;;;;;;;8.15;78.28;100517.28;5052709;28;20099;-43
2023/09/23 01:37:45;;;;;;;10.95;2.65;;;;;;;8.15;78.49;100519.22;5051568;28;20391;-43
2023/09/23 01:40:18;;;;;;;7.53;2.42;;;;;;;8.16;78.58;100515.31;5052259;28;20475;-45
2023/09/23 01:42:48;;;;;;;10.00;3.25;;;;;;;8.16;78.59;100510.59;5052029;28;20055;-45
2023/09/23 01:45:15;;;;;;;15.43;3.10;;;;;;;8.18;78.48;100518.56;5049411;28;20036;-45
2023/09/23 01:47:43;;;;;;;13.75;3.67;;;;;;;8.17;78.70;100514.19;5049731;28;20114;-44
2023/09/23 01:50:13;;;;;;;13.68;3.65;;;;;;;8.14;78.80;100517.59;5050020;28;20084;-43
2023/09/23 01:52:43;;;;;;;7.57;2.63;;;;;;;8.12;78.65;100519.91;5048751;28;20491;-44
2023/09/23 01:55:12;;;;;;;15.38;4.85;;;;;;;8.06;79.09;100529.50;5052087;28;20052;-45
2023/09/23 01:57:39;;;;;;;13.63;4.07;;;;;;;8.06;79.29;100524.78;5051159;28;20048;-45
2023/09/23 02:00:29;;;;;;;9.00;3.03;;;;;;;8.05;79.16;100525.13;5048739;28;20056;-44
2023/09/23 02:02:55;;;;;;;18.02;6.10;;;;;;;8.03;79.02;100528.22;5049701;28;20057;-45
2023/09/23 02:05:24;;;;;;;15.68;4.20;;;;;;;8.01;79.28;100510.38;5044802;28;20470;-44
2023/09/23 02:07:51;;;;;;;20.25;5.25;;;;;;;7.94;79.24;100513.69;5045551;28;20041;-46
2023/09/23 02:10:18;;;;;;;15.13;3.83;;;;;;;7.94;79.38;100510.94;5049229;28;20049;-43
2023/09/23 02:12:45;;;;;;;13.38;3.53;;;;;;;7.94;79.42;100508.19;5050318;28;20041;-44
2023/09/23 02:15:15;;;;;;;17.77;4.00;;;;;;;7.93;79.45;100520.34;5049741;28;20057;-46
2023/09/23 02:17:43;;;;;;;15.30;4.22;;;;;;;7.89;79.59;100522.94;5046760;28;20478;-45
2023/09/23 02:20:16;;;;;;;15.40;5.30;;;;;;;7.89;79.74;100522.13;5051004;28;20069;-44
2023/09/23 02:22:47;;;;;;;13.07;3.05;;;;;;;7.82;79.76;100511.63;5050105;28;20037;-45
2023/09/23 02:25:16;;;;;;;12.93;4.03;;;;;;;7.78;80.09;100516.19;5047966;28;22558;-44
2023/09/23 02:27:46;;;;;;;11.45;3.17;;;;;;;7.81;80.18;100525.75;5045763;28;20044;-44
2023/09/23 02:30:14;;;;;;;16.60;3.50;;;;;;;7.82;80.35;100533.69;5045970;28;20045;-43
2023/09/23 02:32:42;;;;;;;14.00;4.05;;;;;;;7.82;80.02;100528.16;5048628;28;20064;-44
2023/09/23 02:35:11;;;;;;;10.98;4.13;;;;;;;7.79;80.05;100528.00;5045769;28;20491;-43
2023/09/23 02:37:46;;;;;;;13.93;3.20;;;;;;;7.75;80.34;100527.91;5046958;28;20055;-44
2023/09/23 02:40:14;;;;;;;14.32;3.70;;;;;;;7.76;80.50;100535.00;5047185;28;20376;-43
2023/09/23 02:42:43;;;;;;;15.50;3.75;;;;;;;7.73;80.65;100538.41;5049809;28;20108;-44
2023/09/23 02:45:12;;;;;;;11.15;3.10;;;;;;;7.72;80.80;100539.56;5043889;28;20156;-43
2023/09/23 02:47:40;;;;;;;11.57;4.38;;;;;;;7.72;80.83;100538.75;5044743;28;20135;-44
2023/09/23 02:50:10;;;;;;;11.07;3.72;;;;;;;7.70;80.62;100533.59;5047820;28;20399;-45
2023/09/23 02:52:41;;;;;;;20.25;6.10;;;;;;;7.71;80.63;100526.91;5031783;28;20075;-44
2023/09/23 02:55:12;;;;;;;13.23;3.20;;;;;;;7.69;80.83;100533.91;5044343;28;20103;-47
2023/09/23 02:57:41;;;;;;;12.40;2.80;;;;;;;7.62;81.08;100530.88;5046990;28;20569;-45
2023/09/23 03:02:55;;;;;;;12.00;2.80;;;;;;;7.61;81.18;100532.81;4956734;23;20141;-42
2023/09/23 03:05:30;;;;;;;11.07;2.60;;;;;;;7.58;81.28;100522.44;5009625;28;20848;-41
2023/09/23 03:07:59;;;;;;;10.05;3.15;;;;;;;7.59;81.24;100521.31;5009561;28;20052;-41
2023/09/23 03:10:40;;;;;;;12.68;2.75;;;;;;;7.57;81.46;100523.56;5011582;28;20057;-41
2023/09/23 03:13:11;;;;;;;17.70;3.70;;;;;;;7.57;81.73;100523.56;5009521;28;20553;-41
2023/09/23 03:15:44;;;;;;;10.95;3.78;;;;;;;7.58;81.50;100519.69;5010330;28;20819;-41
2023/09/23 03:18:14;;;;;;;13.60;3.25;;;;;;;7.58;81.83;100527.13;5009371;28;20487;-42
2023/09/23 03:20:42;;;;;;;12.85;5.00;;;;;;;7.55;81.56;100527.78;5010183;28;20038;-42
2023/09/23 03:23:09;;;;;;;11.40;3.28;;;;;;;7.56;81.97;100524.72;5010565;28;20089;-43
2023/09/23 03:25:46;;;;;;;9.02;3.35;;;;;;;7.60;82.03;100536.69;5010503;28;20050;-43
2023/09/23 03:28:17;;;;;;;12.60;3.55;;;;;;;7.62;81.64;100534.44;5009839;28;20137;-43
2023/09/23 03:30:47;;;;;;;9.05;2.95;;;;;;;7.64;81.78;100531.34;5010035;28;20046;-42
2023/09/23 03:33:18;;;;;;;15.07;3.23;;;;;;;7.64;81.61;100531.34;5010674;28;20589;-44
2023/09/23 03:35:46;;;;;;;11.35;3.15;;;;;;;7.56;81.93;100530.25;5009808;28;20034;-41
2023/09/23 03:38:13;;;;;;;12.52;5.40;;;;;;;7.53;82.00;100530.91;5010339;28;20045;-40
2023/09/23 03:40:40;;;;;;;10.27;2.35;;;;;;;7.51;82.15;100533.19;5010584;28;20055;-41
2023/09/23 03:43:07;;;;;;;9.75;3.28;;;;;;;7.52;82.26;100537.53;5011288;28;20033;-40
2023/09/23 03:45:34;;;;;;;13.30;4.05;;;;;;;7.52;82.25;100545.78;5010146;28;20085;-41
2023/09/23 03:48:02;;;;;;;14.52;4.30;;;;;;;7.51;82.25;100535.94;5009186;28;20119;-43
2023/09/23 03:50:30;;;;;;;8.27;3.22;;;;;;;7.49;82.27;100534.66;5010384;28;20061;-43
2023/09/23 03:52:58;;;;;;;12.23;4.22;;;;;;;7.46;82.33;100530.59;5010445;28;20046;-41
2023/09/23 03:55:24;;;;;;;13.68;5.50;;;;;;;7.45;82.48;100533.66;5008852;28;20381;-41
2023/09/23 03:57:53;;;;;;;13.52;4.18;;;;;;;7.45;82.67;100520.72;5009727;28;20491;-40
2023/09/23 04:00:26;;;;;;;19.58;4.55;;;;;;;7.48;82.76;100527.50;5011175;28;20041;-41
2023/09/23 04:02:54;;;;;;;11.75;2.45;;;;;;;7.48;82.60;100522.81;5010412;28;20050;-40
2023/09/23 04:05:23;;;;;;;13.32;4.68;;;;;;;7.48;82.65;100520.06;5010072;28;20368;-41
2023/09/23 04:07:50;;;;;;;9.65;3.42;;;;;;;7.48;82.59;100522.00;5008911;28;20557;-40
2023/09/23 04:10:23;;;;;;;8.68;2.50;;;;;;;7.49;82.66;100529.94;5010284;28;20452;-41
2023/09/23 04:12:53;;;;;;;9.43;3.08;;;;;;;7.49;82.56;100524.44;5010001;28;20452;-43
2023/09/23 04:15:22;;;;;;;8.00;2.53;;;;;;;7.46;82.78;100521.53;5009773;28;20041;-42
2023/09/23 04:17:49;;;;;;;9.68;3.70;;;;;;;7.42;82.80;100518.63;5009072;28;20041;-41
2023/09/23 04:20:16;;;;;;;10.38;2.38;;;;;;;7.39;83.15;100524.78;5008443;28;20042;-45
2023/09/23 04:22:46;;;;;;;10.65;2.75;;;;;;;7.35;83.18;100532.09;5009795;28;20530;-41
2023/09/23 04:25:15;;;;;;;9.52;3.53;;;;;;;7.35;83.37;100541.16;5009616;28;20403;-41
2023/09/23 04:27:42;;;;;;;13.18;2.80;;;;;;;7.34;83.57;100544.25;5009427;28;20056;-41
2023/09/23 04:30:11;;;;;;;11.40;2.90;;;;;;;7.34;83.52;100545.06;5009621;28;20506;-41
2023/09/23 04:32:42;;;;;;;14.95;3.38;;;;;;;7.32;83.67;100541.81;5009173;28;20554;-43
2023/09/23 04:35:14;;;;;;;7.90;2.50;;;;;;;7.39;83.71;100552.31;5007921;28;20048;-41
2023/09/23 04:37:41;;;;;;;6.45;2.40;;;;;;;7.42;83.36;100556.34;5007044;28;20042;-43
2023/09/23 04:40:11;;;;;;;13.40;3.38;;;;;;;7.42;83.69;100550.84;5008105;28;20054;-41
2023/09/23 04:42:39;;;;;;;14.48;2.70;;;;;;;7.42;83.88;100548.91;5009667;28;20395;-41
2023/09/23 04:45:08;;;;;;;9.25;2.30;;;;;;;7.46;83.80;100552.63;5009307;28;20065;-45
2023/09/23 04:47:36;;;;;;;11.85;3.40;;;;;;;7.49;83.61;100540.97;5008571;28;20049;-41
2023/09/23 04:50:08;;;;;;;9.82;2.80;;;;;;;7.52;83.85;100540.28;5009154;28;20133;-41
2023/09/23 04:52:35;;;;;;;;;;;;;;;7.53;83.75;100541.91;5010157;28;20066;-41
2023/09/23 04:55:02;;;;;;;9.93;2.70;;;;;;;7.50;83.67;100534.31;5009111;28;19926;-41
2023/09/23 04:57:31;;;;;;;11.32;2.65;;;;;;;7.51;83.53;100546.13;5008275;28;20044;-45
2023/09/23 04:59:58;;;;;;;8.35;2.38;;;;;;;7.49;83.74;100552.00;5008966;28;20046;-41
2023/09/23 05:02:26;;;;;;;10.45;2.53;;;;;;;7.54;84.08;100543.53;5009208;28;20076;-41
2023/09/23 05:04:53;;;;;;;6.95;1.95;;;;;;;7.56;84.21;100541.25;5009084;28;20120;-44
2023/09/23 05:07:21;;;;;;;10.65;2.22;;;;;;;7.58;84.05;100544.47;5008070;28;20041;-40
2023/09/23 05:09:49;;;;;;;13.38;3.13;;;;;;;7.61;84.12;100546.59;5008486;28;20042;-44
2023/09/23 05:12:17;;;;;;;8.40;2.30;;;;;;;7.67;83.99;100545.28;5009111;28;20382;-46
2023/09/23 05:14:44;;;;;;;7.78;2.15;;;;;;;7.69;84.11;100547.69;5009054;28;20050;-43
2023/09/23 05:17:15;;;;;;;8.98;2.70;;;;;;;7.68;84.20;100538.59;5008669;28;20045;-47
2023/09/23 05:19:46;;;;;;;6.90;2.43;;;;;;;7.71;84.11;100548.97;5008078;28;20057;-41
2023/09/23 05:22:13;;;;;;;8.75;1.98;;;;;;;7.73;83.98;100548.66;5009113;28;20042;-41
2023/09/23 05:24:41;;;;;;;12.88;3.53;;;;;;;7.72;83.97;100547.03;5009068;28;20050;-42
2023/09/23 05:27:09;;;;;;;14.25;2.40;;;;;;;7.70;83.98;100541.84;5009101;28;20056;-41
2023/09/23 05:29:36;;;;;;;14.88;3.58;;;;;;;7.74;83.99;100548.31;5008147;28;20049;-42
2023/09/23 05:32:03;;;;;;;8.65;2.72;;;;;;;7.71;84.05;100551.72;5009005;28;20049;-41
2023/09/23 05:34:30;;;;;;;15.00;2.22;;;;;;;7.71;84.04;100562.75;5008485;28;20492;-41
2023/09/23 05:36:57;;;;;;;11.25;3.38;;;;;;;7.71;84.11;100562.75;5008819;28;20046;-42
2023/09/23 05:39:24;;;;;;;11.55;2.88;;;;;;;7.72;83.91;100567.13;5007926;28;20041;-42
2023/09/23 05:41:51;;;;;;;11.43;3.38;;;;;;;7.72;84.06;100571.81;4999448;28;20056;-44
2023/09/23 05:44:18;;;;;;;8.77;2.55;;;;;;;7.70;84.13;100563.91;5008271;28;20100;-41
2023/09/23 05:46:48;;;;;;;13.68;3.15;;;;;;;7.68;84.29;100577.19;5007683;28;20042;-43
2023/09/23 05:49:15;;;;;;;10.20;2.38;;;;;;;7.67;84.20;100572.81;5007639;28;20049;-44
2023/09/23 05:51:43;;;;;;;12.52;2.90;;;;;;;7.66;84.30;100567.63;5008723;28;20046;-49
2023/09/23 05:54:11;;;;;;;11.13;2.35;;;;;;;7.63;84.28;100563.59;5008745;28;20048;-44
2023/09/23 05:56:38;;;;;;;13.38;2.65;;;;;;;7.66;84.45;100571.19;5008289;28;20041;-45
2023/09/23 05:59:10;;;;;;;12.90;2.20;;;;;;;7.61;84.50;100565.88;5008400;28;20302;-41
2023/09/23 06:01:40;;;;;;;10.02;1.92;;;;;;;7.58;84.50;100569.28;5008545;28;20102;-41
2023/09/23 06:04:10;;;;;;;11.45;2.30;;;;;;;7.59;84.46;100573.66;5008724;28;20380;-43
2023/09/23 06:06:40;;;;;;;16.42;2.28;;;;;;;7.56;84.49;100576.25;5005876;28;20049;-42
2023/09/23 06:09:07;;;;;;;7.40;2.80;;;;;;;7.54;84.66;100587.63;5008389;28;20038;-42
2023/09/23 06:11:34;;;;;;;8.43;2.13;;;;;;;7.54;84.66;100590.38;5009782;28;20050;-41
2023/09/23 06:14:01;;;;;;;14.43;2.33;;;;;;;7.53;84.87;100593.44;5012054;28;20042;-42
2023/09/23 06:16:28;;;;;;;10.48;2.47;;;;;;;7.50;84.85;100592.16;5010823;28;20052;-43
2023/09/23 06:18:55;;;;;;;9.65;1.70;;;;;;;7.50;85.09;100597.66;5012505;28;20050;-42
2023/09/23 06:21:22;;;;;;;4.88;1.88;;;;;;;7.52;85.00;100592.63;5012035;28;20045;-41
2023/09/23 06:23:49;;;;;;;15.38;3.40;;;;;;;7.52;85.00;100595.38;5011994;28;20491;-41
2023/09/23 06:26:16;;;;;;;7.47;2.83;;;;;;;7.53;85.12;100608.03;5011102;28;20519;-41
2023/09/23 06:28:43;;;;;;;10.65;3.05;;;;;;;7.58;85.11;100607.03;5012120;28;20057;-41
2023/09/23 06:31:10;;;;;;;10.95;2.03;;;;;;;7.62;85.19;100599.75;5011835;28;20045;-42
2023/09/23 06:33:37;;;;;;;8.05;2.28;;;;;;;7.64;85.06;100591.94;5002363;28;20081;-42
2023/09/23 06:36:05;;;;;;;5.68;1.95;;;;;;;7.67;85.24;100591.28;5010947;28;20100;-41
2023/09/23 06:38:33;;;;;;;9.02;3.13;;;;;;;7.71;85.23;100603.25;5010643;28;20050;-41
2023/09/23 06:41:00;;;;;;;9.68;3.00;;;;;;;7.74;85.24;100595.16;5010083;28;20042;-43
2023/09/23 06:43:28;;;;;;;8.13;2.28;;;;;;;7.75;85.42;100615.25;5010352;28;20058;-41
2023/09/23 06:45:56;;;;;;;10.23;1.90;;;;;;;7.80;85.55;100607.63;5011160;28;20084;-41
2023/09/23 06:48:24;;;;;;;10.73;2.63;;;;;;;7.85;85.37;100599.16;5010653;28;20050;-41
2023/09/23 06:50:56;;;;;;;10.73;2.10;;;;;;;7.86;85.45;100606.28;5010438;28;20050;-41
2023/09/23 06:53:23;;;;;;;11.85;2.72;;;;;;;7.90;85.65;100615.53;5011605;28;20046;-42
2023/09/23 06:55:50;;;;;;;9.88;2.40;;;;;;;7.94;85.50;100607.41;5010628;28;20096;-42
2023/09/23 06:58:17;;;;;;;11.93;2.35;;;;;;;7.96;85.42;100607.88;5010057;28;20428;-43
2023/09/23 07:00:45;;;;;;;10.35;2.75;;;;;;;8.02;85.46;100611.25;5009707;28;20048;-43
2023/09/23 07:03:12;;;;;;;14.55;2.70;;;;;;;8.08;85.53;100607.16;5010915;28;20427;-47
2023/09/23 07:05:41;;;;;;;11.18;2.60;;;;;;;8.10;85.51;100624.97;5011139;28;20504;-45
2023/09/23 07:08:07;;;;;;;8.38;2.00;;;;;;;8.16;85.43;100618.16;5010809;28;20045;-44
2023/09/23 07:10:35;;;;;;;13.10;2.35;;;;;;;8.18;85.25;100629.66;5011240;28;20045;-43
2023/09/23 07:13:05;;;;;;;9.95;2.30;;;;;;;8.24;85.28;100633.03;5011287;28;20752;-44
2023/09/23 07:15:38;;;;;;;10.38;2.97;;;;;;;8.29;85.50;100624.59;5011454;28;20061;-44
2023/09/23 07:18:05;;;;;;;12.23;2.50;;;;;;;8.35;85.49;100628.78;5009812;28;20062;-43
2023/09/23 07:20:34;;;;;;;11.98;2.92;;;;;;;8.40;85.30;100628.59;5010658;28;20049;-43
2023/09/23 07:23:01;;;;;;;10.05;2.42;;;;;;;8.45;85.31;100629.22;5010185;28;20057;-43
2023/09/23 07:25:28;;;;;;;11.25;3.15;;;;;;;8.51;85.24;100638.94;5009592;28;20128;-44
2023/09/23 07:27:59;;;;;;;6.68;2.00;;;;;;;8.57;85.21;100642.31;4983278;28;20057;-43
2023/09/23 07:30:26;;;;;;;9.52;2.00;;;;;;;8.62;85.17;100628.31;5010971;28;20392;-43
2023/09/23 07:32:53;;;;;;;11.00;2.95;;;;;;;8.65;85.08;100635.13;5010161;28;20042;-45
2023/09/23 07:35:20;;;;;;;11.43;2.53;;;;;;;8.73;85.10;100628.72;5010369;28;20069;-43
2023/09/23 07:37:48;;;;;;;12.38;2.63;;;;;;;8.77;85.15;100618.63;5008802;28;20049;-45
2023/09/23 07:40:16;;;;;;;10.05;2.85;;;;;;;8.86;85.16;100631.22;5000568;28;20041;-42
2023/09/23 07:42:43;;;;;;;7.03;2.22;;;;;;;8.93;85.02;100631.50;5009060;28;20061;-43
2023/09/23 07:45:10;;;;;;;12.57;3.17;;;;;;;9.01;85.08;100629.78;5009163;28;20125;-44
2023/09/23 07:47:37;;;;;;;7.57;2.25;;;;;;;9.06;85.09;100633.16;5010182;28;20152;-46
2023/09/23 07:50:04;;;;;;;9.50;2.30;;;;;;;9.09;84.96;100638.00;5010063;28;20072;-44
2023/09/23 07:52:34;;;;;;;11.52;3.65;;;;;;;9.12;84.74;100631.81;5010259;28;20102;-45
2023/09/23 07:55:02;;;;;;;8.00;2.42;;;;;;;9.15;84.82;100642.19;5010290;28;20089;-43
2023/09/23 07:57:28;;;;;;;12.43;2.67;;;;;;;9.17;84.65;100642.66;5007971;28;20092;-42
2023/09/23 07:59:58;;;;;;;7.88;3.03;;;;;;;9.22;84.52;100638.06;5009606;28;20144;-43
2023/09/23 08:02:26;;;;;;;8.73;2.60;;;;;;;9.26;84.48;100658.34;5009014;28;20530;-44
2023/09/23 08:04:53;;;;;;;11.25;2.70;;;;;;;9.27;84.30;100654.41;5007929;28;20069;-44
2023/09/23 08:07:20;;;;;;;16.15;2.80;;;;;;;9.30;84.19;100664.81;5010120;28;20539;-43
2023/09/23 08:09:47;;;;;;;11.27;2.63;;;;;;;9.36;84.08;100668.97;5009349;28;20574;-43
2023/09/23 08:12:13;;;;;;;8.88;2.53;;;;;;;9.42;84.08;100657.41;5009869;28;20403;-43
2023/09/23 08:14:40;;;;;;;11.32;2.65;;;;;;;9.49;83.94;100659.59;5009797;28;20038;-46
2023/09/23 08:17:07;;;;;;;9.98;2.95;;;;;;;9.57;83.91;100659.50;5010741;28;20050;-46
2023/09/23 08:19:34;;;;;;;8.98;3.22;;;;;;;9.66;83.57;100662.97;5009462;28;20057;-44
2023/09/23 08:22:01;;;;;;;12.57;2.28;;;;;;;9.74;83.56;100659.31;5008781;28;20136;-44
2023/09/23 08:24:28;;;;;;;8.38;2.47;;;;;;;9.84;83.48;100655.34;5009913;28;20128;-44
2023/09/23 08:26:56;;;;;;;7.40;2.03;;;;;;;9.93;83.32;100656.03;5010099;28;20522;-46
2023/09/23 08:29:24;;;;;;;8.02;2.78;;;;;;;9.99;83.15;100662.94;5009432;28;20046;-44
2023/09/23 08:31:52;;;;;;;7.15;2.35;;;;;;;10.03;83.23;100663.09;5008557;28;20050;-44
2023/09/23 08:34:19;;;;;;;12.35;4.05;;;;;;;10.08;83.19;100665.63;5008062;28;20108;-44
2023/09/23 08:36:46;;;;;;;10.50;2.50;;;;;;;10.14;83.19;100661.53;5009933;28;20112;-44
2023/09/23 08:39:14;;;;;;;10.55;2.22;;;;;;;10.20;83.23;100663.69;5009966;28;20037;-43
2023/09/23 08:41:50;;;;;;;7.47;1.95;;;;;;;10.30;83.36;100660.47;5008952;28;20156;-45
2023/09/23 08:44:21;;;;;;;5.55;1.75;;;;;;;10.42;83.80;100650.56;5009733;28;20050;-44
2023/09/23 08:46:52;;;;;;;7.95;2.08;;;;;;;10.54;83.93;100656.13;5007994;28;20034;-45
2023/09/23 08:49:23;;;;;;;7.53;2.20;;;;;;;10.65;84.42;100660.81;5010023;28;20033;-44
2023/09/23 08:51:54;;;;;;;6.90;1.85;;;;;;;10.79;85.16;100666.00;5008820;28;20295;-44
2023/09/23 08:54:25;;;;;;;4.18;1.77;;;;;;;10.96;86.20;100668.53;5009916;28;20089;-44
2023/09/23 08:56:54;;;;;;;11.20;2.58;;;;;;;11.16;87.05;100650.91;5009392;28;21061;-44
2023/09/23 08:59:21;;;;;;;3.42;2.00;;;;;;;11.36;87.45;100658.22;5009300;28;20149;-44
2023/09/23 09:01:48;;;;;;;5.95;1.90;;;;;;;11.58;88.05;100665.16;5007835;28;20054;-47
2023/09/23 09:04:15;;;;;;;5.72;1.42;;;;;;;11.84;88.68;100662.75;5009838;28;20045;-47
2023/09/23 09:06:51;;;;;;;4.60;2.28;;;;;;;12.30;88.78;100668.69;5008979;28;20132;-45
2023/09/23 09:09:18;;;;;;;9.15;2.38;;;;;;;13.01;87.90;100677.53;4983761;28;20043;-45
2023/09/23 09:11:50;;;;;;;8.27;1.95;;;;;;;14.00;85.68;100682.41;5008462;28;20077;-45
2023/09/23 09:14:17;;;;;;;15.68;2.47;;;;;;;15.09;81.58;100675.81;5009376;28;20459;-50
2023/09/23 09:16:45;;;;;;;10.02;3.40;;;;;;;16.19;76.38;100680.75;5007950;28;20034;-46
2023/09/23 09:19:15;;;;;;;9.18;2.05;;;;;;;17.12;71.24;100685.91;5009265;28;20050;-49
2023/09/23 09:21:42;;;;;;;7.50;2.33;;;;;;;17.97;67.28;100687.09;5008261;28;20050;-46
2023/09/23 09:24:09;;;;;;;7.40;2.42;;;;;;;18.85;63.45;100687.16;5008910;28;20046;-45
2023/09/23 09:26:38;;;;;;;4.75;2.03;;;;;;;19.65;59.79;100684.53;5008848;28;20057;-44
2023/09/23 09:29:05;;;;;;;4.75;1.50;;;;;;;20.23;57.34;100686.63;5008903;28;20042;-45
2023/09/23 09:31:33;;;;;;;6.40;1.92;;;;;;;20.81;54.61;100694.22;5009373;28;20042;-45
2023/09/23 09:34:06;;;;;;;6.85;1.95;;;;;;;21.12;53.58;100686.72;5009081;28;20530;-45
2023/09/23 09:36:37;;;;;;;5.68;2.35;;;;;;;21.16;51.55;100691.09;5008363;28;20053;-45
2023/09/23 09:39:07;;;;;;;5.53;1.95;;;;;;;21.31;49.76;100699.41;5008669;28;20049;-45
2023/09/23 09:41:46;;;;;;;7.63;2.10;;;;;;;21.32;49.75;100687.69;5009654;28;20042;-45
2023/09/23 09:44:15;;;;;;;4.07;1.70;;;;;;;21.67;47.81;100689.28;5010585;28;20038;-46
2023/09/23 09:46:43;;;;;;;6.97;1.60;;;;;;;21.81;46.03;100692.75;5012203;28;20046;-46
2023/09/23 09:49:11;;;;;;;4.10;1.73;;;;;;;21.95;44.96;100694.56;5011871;28;20084;-46
2023/09/23 09:51:40;;;;;;;6.97;1.85;;;;;;;21.99;44.42;100677.63;5013084;28;20144;-45
2023/09/23 09:54:09;;;;;;;7.10;1.73;;;;;;;21.93;43.66;100680.09;5012905;28;20033;-45
2023/09/23 09:56:38;;;;;;;4.63;1.73;;;;;;;21.61;43.16;100686.13;5011608;28;20451;-45
2023/09/23 09:59:05;;;;;;;6.88;1.52;;;;;;;21.14;42.91;100676.63;5011898;28;20598;-45
2023/09/23 10:01:34;;;;;;;5.30;1.58;;;;;;;20.62;43.38;100669.50;5011586;28;20565;-45
2023/09/23 10:04:09;;;;;;;5.68;1.60;;;;;;;20.20;44.29;100661.38;5010787;28;20038;-44
2023/09/23 10:06:39;;;;;;;6.40;1.92;;;;;;;19.76;44.53;100667.63;5012382;28;20053;-44
2023/09/23 10:09:14;;;;;;;6.38;1.73;;;;;;;19.77;44.91;100656.00;5011519;28;20394;-46
2023/09/23 10:11:41;;;;;;;5.38;1.60;;;;;;;20.21;43.25;100663.75;5011887;28;20050;-45
2023/09/23 10:14:16;;;;;;;3.35;1.38;;;;;;;20.23;43.13;100652.06;5011383;28;20041;-45
2023/09/23 10:17:01;;;;;;;3.55;1.52;;;;;;;20.35;43.33;100654.44;5010431;28;20045;-45
2023/09/23 10:19:29;;;;;;;4.45;1.05;;;;;;;20.64;41.86;100661.44;5011739;28;20112;-47
2023/09/23 10:22:13;;;;;;;8.20;1.40;;;;;;;20.77;41.49;100659.69;5011062;28;20049;-44
2023/09/23 10:24:40;;;;;;;6.13;2.10;;;;;;;20.91;40.45;100650.31;5008325;28;20041;-45
2023/09/23 10:27:11;;;;;;;5.65;1.33;;;;;;;20.82;40.16;100641.56;5012295;28;20599;-44
2023/09/23 10:29:47;;;;;;;4.03;1.37;;;;;;;20.83;40.25;100641.16;5010982;28;20049;-45
2023/09/23 10:32:16;;;;;;;3.90;1.10;;;;;;;21.09;39.77;100643.31;5012987;28;20041;-44
2023/09/23 10:34:47;;;;;;;3.15;1.30;;;;;;;21.43;39.43;100650.97;5011032;28;20088;-45
2023/09/23 10:37:26;;;;;;;3.47;1.88;;;;;;;21.62;39.23;100653.13;5010190;28;20054;-45
2023/09/23 10:39:53;;;;;;;5.18;2.25;;;;;;;21.95;38.20;100655.09;5010501;28;20049;-45
2023/09/23 10:42:20;;;;;;;6.78;1.92;;;;;;;21.96;38.05;100645.44;5011740;28;20084;-46
2023/09/23 10:44:50;;;;;;;5.13;2.13;;;;;;;21.81;37.95;100633.56;5011971;28;20100;-46
2023/09/23 10:47:17;;;;;;;4.32;1.83;;;;;;;21.73;38.15;100623.59;5011559;28;20495;-45
2023/09/23 10:49:44;;;;;;;4.47;1.35;;;;;;;21.47;37.95;100629.97;5009999;28;20463;-46
2023/09/23 10:52:11;;;;;;;4.38;2.10;;;;;;;21.18;38.65;100618.25;5011260;28;20096;-45
2023/09/23 10:54:40;;;;;;;7.10;2.80;;;;;;;20.78;39.12;100610.66;5011771;28;20056;-45
2023/09/23 10:57:07;;;;;;;5.15;1.23;;;;;;;20.30;39.54;100604.28;5009290;28;20038;-47
2023/09/23 10:59:35;;;;;;;6.63;1.35;;;;;;;19.79;40.22;100602.22;5009029;28;20049;-45
2023/09/23 11:02:04;;;;;;;3.28;1.52;;;;;;;19.21;41.25;100611.31;4993466;28;20077;-45
2023/09/23 11:04:33;;;;;;;3.78;1.25;;;;;;;18.54;42.77;100609.47;5010842;28;20053;-48
2023/09/23 11:07:00;;;;;;;8.18;2.47;;;;;;;17.97;43.89;100602.25;4998269;28;20511;-46
2023/09/23 11:09:27;;;;;;;4.80;1.20;;;;;;;17.54;44.87;100585.38;5005106;28;20046;-45
2023/09/23 11:11:57;;;;;;;4.63;1.20;;;;;;;17.23;45.61;100591.63;5003399;28;20048;-47
2023/09/23 11:14:26;;;;;;;3.97;1.85;;;;;;;16.91;46.35;100597.09;5006700;28;20038;-45
2023/09/23 11:16:53;;;;;;;4.40;1.80;;;;;;;16.59;47.44;100590.50;5010222;28;20092;-46
2023/09/23 11:19:21;;;;;;;4.43;1.40;;;;;;;16.34;47.75;100581.91;5009852;28;20042;-49
2023/09/23 11:21:48;;;;;;;6.25;2.75;;;;;;;16.16;48.18;100578.16;5010683;28;20048;-45
2023/09/23 11:24:15;;;;;;;4.57;1.67;;;;;;;15.99;48.29;100578.03;5011351;28;20439;-45
2023/09/23 11:26:42;;;;;;;5.13;1.52;;;;;;;15.78;48.79;100589.78;5010540;28;20504;-45
2023/09/23 11:29:09;;;;;;;7.35;2.13;;;;;;;15.58;49.70;100574.44;5006787;28;20077;-46
2023/09/23 11:31:36;;;;;;;7.45;1.40;;;;;;;15.47;49.77;100584.69;5006498;28;20124;-45
2023/09/23 11:34:03;;;;;;;6.10;1.55;;;;;;;15.38;49.99;100586.94;5009267;28;20484;-47
2023/09/23 11:36:30;;;;;;;5.18;1.40;;;;;;;15.30;50.11;100588.06;5001948;28;20062;-45